createdAt,value
2018-03-27T00:00:15.194Z,22.17
2018-03-27T00:02:44.430Z,22.17
2018-03-27T00:05:16.619Z,20.80
2018-03-27T00:07:45.927Z,22.13
2018-03-27T00:10:15.006Z,21.13
2018-03-27T00:12:44.390Z,21.33
2018-03-27T00:15:13.623Z,22.43
2018-03-27T00:17:43.044Z,20.13
2018-03-27T00:20:12.295Z,21.90
2018-03-27T00:22:41.429Z,24.40
2018-03-27T00:25:10.693Z,25.33
2018-03-27T00:27:51.229Z,23.03
2018-03-27T00:30:37.497Z,22.83
2018-03-27T00:33:23.833Z,22.33
2018-03-27T00:36:10.003Z,22.10
2018-03-27T00:38:56.166Z,21.47
2018-03-27T00:44:44.137Z,22.60
2018-03-27T00:47:12.715Z,21.70
2018-03-27T00:49:41.358Z,23.87
2018-03-27T00:52:10.441Z,22.27
2018-03-27T00:54:39.661Z,25.17
2018-03-27T00:57:08.763Z,24.87
2018-03-27T00:59:37.777Z,27.03
2018-03-27T01:02:07.197Z,26.03
2018-03-27T01:04:36.262Z,27.03
2018-03-27T01:07:05.431Z,26.20
2018-03-27T01:09:34.553Z,27.47
2018-03-27T01:12:03.642Z,26.13
2018-03-27T01:14:33.030Z,27.00
2018-03-27T01:17:02.171Z,26.77
2018-03-27T01:19:31.436Z,29.10
2018-03-27T01:22:00.584Z,28.57
2018-03-27T01:24:30.470Z,28.67
2018-03-27T01:26:59.511Z,28.57
2018-03-27T01:29:28.532Z,29.30
2018-03-27T01:31:57.686Z,28.97
2018-03-27T01:34:26.755Z,31.23
2018-03-27T01:36:55.803Z,30.70
2018-03-27T01:39:25.358Z,29.67
2018-03-27T01:41:54.369Z,30.43
2018-03-27T01:44:23.486Z,29.80
2018-03-27T01:46:52.475Z,29.97
2018-03-27T01:49:21.503Z,29.70
2018-03-27T01:51:50.762Z,31.43
2018-03-27T01:54:19.885Z,30.83
2018-03-27T01:56:48.964Z,29.33
2018-03-27T01:59:17.955Z,28.57
2018-03-27T02:01:47.082Z,30.23
2018-03-27T02:04:16.409Z,29.80
2018-03-27T02:06:45.562Z,31.23
2018-03-27T02:09:14.821Z,30.57
2018-03-27T02:11:49.688Z,32.30
2018-03-27T02:14:24.566Z,33.47
2018-03-27T02:16:59.476Z,31.80
2018-03-27T02:19:34.163Z,31.53
2018-03-27T02:22:02.663Z,30.73
2018-03-27T02:24:31.727Z,30.97
2018-03-27T02:27:01.161Z,29.53
2018-03-27T02:29:30.363Z,28.73
2018-03-27T02:31:59.450Z,27.83
2018-03-27T02:34:28.672Z,26.70
2018-03-27T02:36:57.912Z,26.87
2018-03-27T02:39:27.303Z,29.27
2018-03-27T02:41:56.470Z,30.13
2018-03-27T02:44:25.826Z,28.73
2018-03-27T02:46:55.040Z,30.63
2018-03-27T02:49:24.206Z,29.07
2018-03-27T02:51:53.364Z,29.43
2018-03-27T02:54:22.495Z,28.03
2018-03-27T02:56:51.789Z,27.40
2018-03-27T02:59:20.901Z,25.43
2018-03-27T03:01:49.989Z,25.77
2018-03-27T03:04:19.099Z,26.03
2018-03-27T03:06:48.447Z,24.10
2018-03-27T03:09:17.594Z,21.10
2018-03-27T03:11:46.822Z,19.07
2018-03-27T03:14:16.119Z,18.37
2018-03-27T03:16:45.410Z,18.03
2018-03-27T03:19:14.515Z,16.10
2018-03-27T03:21:43.709Z,17.13
2018-03-27T03:24:13.026Z,16.00
2018-03-27T03:26:42.215Z,15.05
2018-03-27T03:29:11.523Z,17.37
2018-03-27T03:31:40.578Z,15.43
2018-03-27T03:34:09.765Z,15.80
2018-03-27T03:36:38.955Z,16.35
2018-03-27T03:39:08.066Z,16.52
2018-03-27T03:41:37.410Z,16.67
2018-03-27T03:44:06.549Z,17.07
2018-03-27T03:46:35.686Z,16.92
2018-03-27T03:49:05.175Z,16.90
2018-03-27T03:51:34.261Z,18.27
2018-03-27T03:54:03.458Z,17.15
2018-03-27T03:56:32.530Z,15.98
2018-03-27T03:59:01.731Z,14.47
2018-03-27T04:01:30.917Z,15.45
2018-03-27T04:04:00.002Z,17.23
2018-03-27T04:06:29.240Z,16.37
2018-03-27T04:08:58.461Z,16.12
2018-03-27T04:11:27.651Z,15.85
2018-03-27T04:13:56.821Z,16.08
2018-03-27T04:16:26.066Z,33.08
2018-03-27T04:18:55.279Z,14.13
2018-03-27T04:21:24.407Z,14.60
2018-03-27T04:23:53.605Z,14.43
2018-03-27T04:26:23.054Z,13.68
2018-03-27T04:28:52.606Z,14.63
2018-03-27T04:31:21.814Z,13.97
2018-03-27T04:33:51.058Z,14.55
2018-03-27T04:36:20.836Z,14.82
2018-03-27T04:38:50.357Z,15.07
2018-03-27T04:41:19.498Z,17.08
2018-03-27T04:43:48.910Z,15.95
2018-03-27T04:46:18.099Z,15.55
2018-03-27T04:48:47.199Z,16.65
2018-03-27T04:51:16.525Z,15.15
2018-03-27T04:53:45.625Z,14.45
2018-03-27T04:56:14.994Z,15.85
2018-03-27T04:58:44.531Z,17.37
2018-03-27T05:01:13.820Z,16.48
2018-03-27T05:03:43.214Z,15.00
2018-03-27T05:06:12.638Z,14.87
2018-03-27T05:08:41.970Z,14.10
2018-03-27T05:11:11.218Z,14.17
2018-03-27T05:13:40.399Z,14.93
2018-03-27T05:16:09.587Z,14.00
2018-03-27T05:18:38.789Z,13.30
2018-03-27T05:21:08.087Z,11.87
2018-03-27T05:23:37.119Z,12.93
2018-03-27T05:26:06.461Z,13.47
2018-03-27T05:28:35.739Z,16.50
2018-03-27T05:31:05.128Z,16.73
2018-03-27T05:33:34.271Z,15.30
2018-03-27T05:36:03.352Z,14.00
2018-03-27T05:38:33.520Z,13.80
2018-03-27T05:41:02.595Z,14.10
2018-03-27T05:43:31.941Z,15.63
2018-03-27T05:46:01.173Z,15.33
2018-03-27T05:48:30.417Z,16.60
2018-03-27T05:50:59.537Z,17.27
2018-03-27T05:53:28.693Z,16.30
2018-03-27T05:55:58.105Z,17.20
2018-03-27T05:58:27.215Z,16.47
2018-03-27T06:00:56.423Z,16.03
2018-03-27T06:03:25.630Z,16.30
2018-03-27T06:05:54.931Z,17.03
2018-03-27T06:08:24.014Z,17.50
2018-03-27T06:10:53.218Z,17.93
2018-03-27T06:13:22.383Z,19.60
2018-03-27T06:15:51.559Z,17.23
2018-03-27T06:18:20.803Z,16.53
2018-03-27T06:20:50.025Z,16.60
2018-03-27T06:23:19.138Z,17.57
2018-03-27T06:25:48.495Z,17.20
2018-03-27T06:28:18.001Z,17.63
2018-03-27T06:30:47.362Z,17.70
2018-03-27T06:33:16.597Z,19.07
2018-03-27T06:35:45.788Z,17.67
2018-03-27T06:38:15.082Z,15.80
2018-03-27T06:40:44.214Z,16.47
2018-03-27T06:43:13.429Z,17.17
2018-03-27T06:45:42.603Z,18.70
2018-03-27T06:48:11.974Z,19.67
2018-03-27T06:50:41.406Z,42.13
2018-03-27T06:53:10.498Z,22.60
2018-03-27T06:55:39.695Z,20.13
2018-03-27T06:58:08.869Z,18.43
2018-03-27T07:00:38.113Z,18.50
2018-03-27T07:03:07.223Z,20.40
2018-03-27T07:05:36.493Z,17.83
2018-03-27T07:08:05.747Z,18.27
2018-03-27T07:10:35.102Z,17.40
2018-03-27T07:13:04.527Z,16.13
2018-03-27T07:15:33.881Z,29.80
2018-03-27T07:18:03.113Z,19.10
2018-03-27T07:20:32.418Z,25.37
2018-03-27T07:23:01.716Z,18.53
2018-03-27T07:25:31.068Z,16.93
2018-03-27T07:28:00.320Z,18.07
2018-03-27T07:30:29.632Z,18.10
2018-03-27T07:32:59.127Z,23.37
2018-03-27T07:35:28.274Z,17.63
2018-03-27T07:37:57.535Z,19.00
2018-03-27T07:40:26.778Z,14.67
2018-03-27T07:42:56.119Z,13.87
2018-03-27T07:45:25.193Z,18.53
2018-03-27T07:47:54.722Z,17.00
2018-03-27T07:50:24.132Z,16.40
2018-03-27T07:52:53.615Z,15.17
2018-03-27T07:55:22.836Z,15.77
2018-03-27T07:57:52.120Z,20.83
2018-03-27T08:00:21.646Z,19.27
2018-03-27T08:02:50.766Z,20.13
2018-03-27T08:05:19.926Z,21.33
2018-03-27T08:07:49.134Z,21.20
2018-03-27T08:10:18.310Z,18.90
2018-03-27T08:12:47.578Z,17.10
2018-03-27T08:15:16.986Z,12.47
2018-03-27T08:17:46.181Z,14.97
2018-03-27T08:20:15.641Z,16.70
2018-03-27T08:22:44.853Z,15.73
2018-03-27T08:25:14.100Z,16.40
2018-03-27T08:27:43.637Z,17.73
2018-03-27T08:30:13.062Z,14.47
2018-03-27T08:32:42.558Z,15.17
2018-03-27T08:35:11.857Z,15.03
2018-03-27T08:37:41.123Z,13.40
2018-03-27T08:40:10.440Z,17.80
2018-03-27T08:42:39.946Z,17.90
2018-03-27T08:45:09.367Z,13.60
2018-03-27T08:47:38.765Z,13.57
2018-03-27T08:50:08.174Z,14.43
2018-03-27T08:52:37.677Z,13.77
2018-03-27T08:55:06.954Z,14.33
2018-03-27T08:57:36.246Z,12.97
2018-03-27T09:00:06.443Z,13.17
2018-03-27T09:02:36.897Z,13.47
2018-03-27T09:05:06.246Z,14.93
2018-03-27T09:07:35.479Z,16.10
2018-03-27T09:10:04.754Z,18.37
2018-03-27T09:12:34.241Z,18.07
2018-03-27T09:15:03.530Z,17.70
2018-03-27T09:17:32.825Z,20.90
2018-03-27T09:20:02.205Z,19.47
2018-03-27T09:22:31.498Z,22.37
2018-03-27T09:25:00.837Z,25.07
2018-03-27T09:27:29.951Z,26.97
2018-03-27T09:29:59.290Z,26.00
2018-03-27T09:32:28.635Z,24.57
2018-03-27T09:34:58.246Z,24.52
2018-03-27T09:37:27.521Z,27.65
2018-03-27T09:39:56.775Z,27.58
2018-03-27T09:42:26.094Z,25.95
2018-03-27T09:44:55.177Z,29.48
2018-03-27T09:47:24.621Z,30.60
2018-03-27T09:49:53.933Z,29.20
2018-03-27T09:52:23.078Z,29.25
2018-03-27T09:54:52.951Z,31.92
2018-03-27T09:57:22.321Z,34.17
2018-03-27T09:59:51.511Z,33.63
2018-03-27T10:02:20.858Z,33.78
2018-03-27T10:04:50.243Z,37.53
2018-03-27T10:07:20.495Z,29.73
2018-03-27T10:09:49.708Z,32.45
2018-03-27T10:12:18.966Z,31.75
2018-03-27T10:14:48.385Z,30.92
2018-03-27T10:17:17.496Z,32.85
2018-03-27T10:19:46.891Z,33.95
2018-03-27T10:22:27.142Z,33.95
2018-03-27T10:25:02.191Z,32.67
2018-03-27T10:27:31.473Z,34.63
2018-03-27T10:30:00.741Z,33.10
2018-03-27T10:32:30.288Z,34.30
2018-03-27T10:34:59.677Z,33.92
2018-03-27T10:37:29.078Z,33.75
2018-03-27T10:39:58.186Z,34.47
2018-03-27T10:42:27.166Z,36.50
2018-03-27T10:44:56.149Z,39.40
2018-03-27T10:47:25.418Z,38.78
2018-03-27T10:49:55.323Z,33.70
2018-03-27T10:52:24.491Z,32.35
2018-03-27T10:54:53.437Z,31.30
2018-03-27T10:57:22.691Z,35.25
2018-03-27T10:59:51.823Z,32.33
2018-03-27T11:02:20.839Z,30.05
2018-03-27T11:04:49.869Z,36.10
2018-03-27T11:07:18.878Z,34.85
2018-03-27T11:09:48.258Z,35.47
2018-03-27T11:12:17.848Z,35.80
2018-03-27T11:14:47.125Z,34.90
2018-03-27T11:17:16.575Z,40.47
2018-03-27T11:19:45.666Z,37.50
2018-03-27T11:22:15.025Z,40.63
2018-03-27T11:24:44.371Z,39.95
2018-03-27T11:27:13.680Z,38.15
2018-03-27T11:29:42.839Z,39.10
2018-03-27T11:32:12.038Z,36.10
2018-03-27T11:34:41.254Z,33.92
2018-03-27T11:37:10.487Z,37.47
2018-03-27T11:39:39.646Z,37.95
2018-03-27T11:42:08.831Z,33.83
2018-03-27T11:44:38.040Z,33.22
2018-03-27T11:47:07.271Z,33.17
2018-03-27T11:49:36.562Z,37.25
2018-03-27T11:52:05.739Z,34.63
2018-03-27T11:54:35.276Z,36.00
2018-03-27T11:57:04.470Z,38.28
2018-03-27T11:59:33.664Z,36.22
2018-03-27T12:02:02.853Z,34.00
2018-03-27T12:04:32.028Z,33.97
2018-03-27T12:07:01.118Z,32.92
2018-03-27T12:09:30.222Z,31.77
2018-03-27T12:11:59.682Z,28.00
2018-03-27T12:14:29.055Z,28.25
2018-03-27T12:16:58.306Z,26.33
2018-03-27T12:19:27.414Z,23.60
2018-03-27T12:21:56.593Z,24.98
2018-03-27T12:24:26.061Z,24.40
2018-03-27T12:26:55.471Z,26.58
2018-03-27T12:29:24.738Z,28.65
2018-03-27T12:31:54.050Z,26.70
2018-03-27T12:34:23.343Z,24.92
2018-03-27T12:36:52.676Z,27.25
2018-03-27T12:39:21.695Z,27.80
2018-03-27T12:41:50.922Z,26.37
2018-03-27T12:44:20.206Z,25.83
2018-03-27T12:46:55.289Z,23.98
2018-03-27T12:49:24.647Z,24.05
2018-03-27T12:51:54.002Z,25.42
2018-03-27T12:54:23.100Z,23.75
2018-03-27T12:56:52.651Z,24.15
2018-03-27T12:59:21.665Z,27.15
2018-03-27T13:01:50.590Z,24.25
2018-03-27T13:04:19.765Z,25.42
2018-03-27T13:06:49.305Z,29.02
2018-03-27T13:09:18.446Z,26.75
2018-03-27T13:11:47.560Z,28.20
2018-03-27T13:14:17.135Z,26.70
2018-03-27T13:16:46.234Z,26.42
2018-03-27T13:19:15.214Z,28.17
2018-03-27T13:21:44.345Z,25.37
2018-03-27T13:24:13.457Z,25.45
2018-03-27T13:26:42.846Z,27.77
2018-03-27T13:29:11.915Z,30.75
2018-03-27T13:31:40.982Z,28.23
2018-03-27T13:34:10.245Z,36.15
2018-03-27T13:36:40.285Z,28.83
2018-03-27T13:39:09.430Z,29.70
2018-03-27T13:41:38.839Z,31.20
2018-03-27T13:44:08.086Z,30.00
2018-03-27T13:46:37.192Z,32.40
2018-03-27T13:49:06.584Z,33.15
2018-03-27T13:51:35.793Z,35.20
2018-03-27T13:54:04.831Z,35.42
2018-03-27T13:56:33.974Z,34.88
2018-03-27T13:59:03.018Z,39.35
2018-03-27T14:01:32.269Z,36.80
2018-03-27T14:04:01.367Z,35.83
2018-03-27T14:06:30.661Z,36.38
2018-03-27T14:08:59.781Z,50.45
2018-03-27T14:11:28.957Z,36.58
2018-03-27T14:13:58.058Z,38.80
2018-03-27T14:16:27.133Z,33.70
2018-03-27T14:18:56.240Z,32.35
2018-03-27T14:21:25.285Z,37.70
2018-03-27T14:23:54.563Z,34.92
2018-03-27T14:26:23.549Z,37.15
2018-03-27T14:28:52.638Z,35.33
2018-03-27T14:31:21.678Z,35.13
2018-03-27T14:33:50.746Z,35.83
2018-03-27T14:36:19.973Z,40.85
2018-03-27T14:38:49.341Z,41.95
2018-03-27T14:41:18.342Z,40.15
2018-03-27T14:43:47.458Z,38.72
2018-03-27T14:46:16.530Z,36.92
2018-03-27T14:48:45.877Z,35.55
2018-03-27T14:51:15.035Z,35.88
2018-03-27T14:53:44.323Z,35.45
2018-03-27T14:56:13.399Z,35.58
2018-03-27T14:58:42.495Z,34.03
2018-03-27T15:01:11.637Z,37.65
2018-03-27T15:03:40.942Z,35.50
2018-03-27T15:06:09.997Z,42.88
2018-03-27T15:08:39.011Z,38.55
2018-03-27T15:11:08.280Z,40.72
2018-03-27T15:13:37.439Z,34.72
2018-03-27T15:16:06.535Z,38.42
2018-03-27T15:18:35.794Z,32.05
2018-03-27T15:21:04.725Z,36.05
2018-03-27T15:23:33.854Z,40.15
2018-03-27T15:26:02.805Z,39.33
2018-03-27T15:28:31.831Z,40.50
2018-03-27T15:31:00.864Z,40.42
2018-03-27T15:33:30.177Z,38.60
2018-03-27T15:35:59.428Z,40.95
2018-03-27T15:38:28.448Z,37.63
2018-03-27T15:40:57.640Z,37.55
2018-03-27T15:43:26.702Z,34.45
2018-03-27T15:45:55.773Z,33.60
2018-03-27T15:48:24.814Z,36.25
2018-03-27T15:50:53.864Z,36.92
2018-03-27T15:53:22.862Z,36.80
2018-03-27T15:55:51.898Z,39.75
2018-03-27T15:58:20.900Z,40.83
2018-03-27T16:00:50.108Z,44.90
2018-03-27T16:03:19.169Z,40.60
2018-03-27T16:05:48.494Z,39.75
2018-03-27T16:08:17.619Z,40.22
2018-03-27T16:10:46.798Z,40.65
2018-03-27T16:13:15.911Z,40.30
2018-03-27T16:15:44.930Z,41.70
2018-03-27T16:18:14.418Z,42.92
2018-03-27T16:20:43.722Z,43.58
2018-03-27T16:23:12.682Z,43.22
2018-03-27T16:25:41.650Z,42.20
2018-03-27T16:28:11.013Z,42.88
2018-03-27T16:30:39.997Z,49.35
2018-03-27T16:33:08.966Z,37.55
2018-03-27T16:35:37.898Z,34.42
2018-03-27T16:38:07.050Z,39.72
2018-03-27T16:40:36.218Z,38.30
2018-03-27T16:43:05.459Z,37.83
2018-03-27T16:45:34.621Z,34.72
2018-03-27T16:48:03.741Z,37.33
2018-03-27T16:50:33.027Z,38.40
2018-03-27T16:53:02.036Z,35.35
2018-03-27T16:55:31.173Z,40.58
2018-03-27T16:58:00.398Z,34.45
2018-03-27T17:00:29.609Z,35.83
2018-03-27T17:02:58.882Z,34.17
2018-03-27T17:05:28.116Z,36.72
2018-03-27T17:07:58.147Z,34.13
2018-03-27T17:10:27.206Z,36.95
2018-03-27T17:12:56.286Z,37.80
2018-03-27T17:15:25.695Z,38.90
2018-03-27T17:17:54.782Z,42.15
2018-03-27T17:20:24.114Z,41.33
2018-03-27T17:22:53.350Z,45.17
2018-03-27T17:25:22.692Z,45.75
2018-03-27T17:27:51.891Z,44.85
2018-03-27T17:30:21.034Z,44.20
2018-03-27T17:32:50.221Z,42.72
2018-03-27T17:35:19.502Z,37.97
2018-03-27T17:37:48.575Z,41.67
2018-03-27T17:40:18.135Z,42.65
2018-03-27T17:42:47.241Z,43.58
2018-03-27T17:45:16.325Z,44.30
2018-03-27T17:47:45.478Z,40.83
2018-03-27T17:50:14.676Z,41.00
2018-03-27T17:52:43.685Z,42.00
2018-03-27T17:55:12.735Z,40.85
2018-03-27T17:57:41.735Z,40.00
2018-03-27T18:00:10.713Z,38.75
2018-03-27T18:02:39.771Z,39.40
2018-03-27T18:05:08.853Z,39.10
2018-03-27T18:07:38.011Z,36.15
2018-03-27T18:10:07.265Z,37.85
2018-03-27T18:12:36.241Z,38.28
2018-03-27T18:15:05.228Z,40.20
2018-03-27T18:17:34.241Z,40.63
2018-03-27T18:20:03.433Z,39.13
2018-03-27T18:22:32.527Z,38.50
2018-03-27T18:25:01.534Z,38.53
2018-03-27T18:27:30.758Z,36.90
2018-03-27T18:29:59.899Z,39.88
2018-03-27T18:32:29.158Z,41.97
2018-03-27T18:34:58.126Z,35.65
2018-03-27T18:37:27.278Z,44.95
2018-03-27T18:39:56.486Z,42.38
2018-03-27T18:42:25.513Z,40.60
2018-03-27T18:44:54.698Z,34.95
2018-03-27T18:47:24.032Z,34.35
2018-03-27T18:49:53.065Z,40.17
2018-03-27T18:52:22.151Z,43.17
2018-03-27T18:54:51.087Z,37.08
2018-03-27T18:57:20.186Z,35.47
2018-03-27T18:59:49.327Z,35.03
2018-03-27T19:02:18.342Z,33.65
2018-03-27T19:04:47.393Z,34.65
2018-03-27T19:07:16.638Z,35.00
2018-03-27T19:09:45.669Z,37.00
2018-03-27T19:12:14.754Z,35.65
2018-03-27T19:14:43.879Z,61.45
2018-03-27T19:17:13.029Z,44.97
2018-03-27T19:19:42.425Z,51.05
2018-03-27T19:22:11.455Z,59.47
2018-03-27T19:24:40.553Z,71.62
2018-03-27T19:27:09.738Z,67.65
2018-03-27T19:29:38.739Z,55.58
2018-03-27T19:32:07.941Z,52.65
2018-03-27T19:34:37.270Z,51.00
2018-03-27T19:37:06.426Z,47.62
2018-03-27T19:39:35.664Z,44.70
2018-03-27T19:42:04.651Z,45.58
2018-03-27T19:44:33.755Z,39.85
2018-03-27T19:47:02.890Z,45.97
2018-03-27T19:49:31.862Z,46.50
2018-03-27T19:52:00.879Z,41.03
2018-03-27T19:54:29.982Z,43.70
2018-03-27T19:56:58.965Z,46.50
2018-03-27T19:59:28.214Z,43.85
2018-03-27T20:01:57.308Z,38.80
2018-03-27T20:04:26.418Z,39.28
2018-03-27T20:06:55.551Z,39.33
2018-03-27T20:09:24.663Z,37.13
2018-03-27T20:11:53.759Z,39.35
2018-03-27T20:14:22.977Z,38.28
2018-03-27T20:16:52.054Z,41.80
2018-03-27T20:19:21.815Z,42.90
2018-03-27T20:21:51.059Z,42.42
2018-03-27T20:24:20.222Z,42.30
2018-03-27T20:26:49.455Z,41.50
2018-03-27T20:29:18.604Z,38.15
2018-03-27T20:31:47.581Z,37.67
2018-03-27T20:34:16.744Z,39.05
2018-03-27T20:36:45.755Z,38.50
2018-03-27T20:39:14.943Z,39.17
2018-03-27T20:41:44.031Z,34.30
2018-03-27T20:44:12.985Z,31.60
2018-03-27T20:46:42.093Z,31.27
2018-03-27T20:49:11.195Z,31.05
2018-03-27T20:51:40.538Z,27.87
2018-03-27T20:54:09.804Z,35.15
2018-03-27T20:56:38.930Z,32.70
2018-03-27T20:59:08.071Z,32.00
2018-03-27T21:01:37.420Z,32.35
2018-03-27T21:04:06.371Z,32.08
2018-03-27T21:06:35.435Z,31.35
2018-03-27T21:09:04.711Z,30.48
2018-03-27T21:11:33.926Z,30.58
2018-03-27T21:14:02.843Z,30.92
2018-03-27T21:16:31.940Z,30.25
2018-03-27T21:19:01.307Z,27.52
2018-03-27T21:21:30.297Z,26.67
2018-03-27T21:23:59.312Z,26.70
2018-03-27T21:26:28.402Z,28.67
2018-03-27T21:28:57.617Z,27.92
2018-03-27T21:31:26.690Z,29.40
2018-03-27T21:33:55.830Z,28.25
2018-03-27T21:36:25.027Z,27.83
2018-03-27T21:38:54.250Z,25.48
2018-03-27T21:41:23.223Z,27.00
2018-03-27T21:43:52.236Z,27.10
2018-03-27T21:46:21.447Z,26.23
2018-03-27T21:48:50.527Z,29.27
2018-03-27T21:51:19.787Z,25.33
2018-03-27T21:53:48.713Z,27.95
2018-03-27T21:56:17.681Z,28.35
2018-03-27T21:58:46.753Z,27.23
2018-03-27T22:01:18.801Z,25.60
2018-03-27T22:03:47.918Z,27.77
2018-03-27T22:06:26.863Z,34.55
2018-03-27T22:08:55.885Z,37.58
2018-03-27T22:11:25.273Z,37.42
2018-03-27T22:13:54.426Z,37.92
2018-03-27T22:16:23.448Z,39.85
2018-03-27T22:18:52.447Z,41.22
2018-03-27T22:21:21.477Z,41.47
2018-03-27T22:23:50.632Z,46.22
2018-03-27T22:26:19.782Z,47.72
2018-03-27T22:28:48.823Z,50.00
2018-03-27T22:31:18.006Z,46.33
2018-03-27T22:33:47.268Z,46.50
2018-03-27T22:36:16.465Z,47.67
2018-03-27T22:38:45.622Z,48.35
2018-03-27T22:41:14.762Z,48.42
2018-03-27T22:43:44.534Z,46.37
2018-03-27T22:46:13.831Z,46.67
2018-03-27T22:48:42.865Z,47.33
2018-03-27T22:51:12.211Z,49.15
2018-03-27T22:53:41.526Z,50.38
2018-03-27T22:56:10.693Z,48.35
2018-03-27T22:58:39.969Z,48.92
2018-03-27T23:01:09.115Z,46.75
2018-03-27T23:03:38.257Z,46.25
2018-03-27T23:06:07.493Z,47.03
2018-03-27T23:08:36.738Z,46.13
2018-03-27T23:11:05.863Z,45.33
2018-03-27T23:13:35.217Z,48.17
2018-03-27T23:16:04.413Z,48.85
2018-03-27T23:18:33.621Z,48.63
2018-03-27T23:21:02.831Z,49.78
2018-03-27T23:23:32.156Z,51.72
2018-03-27T23:26:01.267Z,51.47
2018-03-27T23:28:30.489Z,52.17
2018-03-27T23:30:59.609Z,47.35
2018-03-27T23:33:28.669Z,51.55
2018-03-27T23:35:57.851Z,48.20
2018-03-27T23:38:27.047Z,49.35
2018-03-27T23:40:56.437Z,48.30
2018-03-27T23:43:25.831Z,45.95
2018-03-27T23:45:55.245Z,46.45
2018-03-27T23:48:24.403Z,47.25
2018-03-27T23:50:53.513Z,48.30
2018-03-27T23:53:22.797Z,49.67
2018-03-27T23:55:51.889Z,47.97
2018-03-27T23:58:21.533Z,47.13
